Time;durP1;ratioP1;P1;durP2;ratioP2;P2;SDS_P1;SDS_P2;PMS_P1;PMS_P2;Temp;Humidity;BMP_temperature;BMP_pressure;BME280_temperature;BME280_humidity;BME280_pressure;Samples;Min_cycle;Max_cycle;Signal;HPM_P1;HPM_P2
2022/03/17 00:00:15;;;;;;;15.38;3.53;;;3.20;90.90;;;;;;4936738;29;20052;-71
2022/03/17 00:02:43;;;;;;;17.02;3.42;;;3.20;90.90;;;;;;4936868;29;20039;-71
2022/03/17 00:05:12;;;;;;;20.30;3.50;;;3.20;90.90;;;;;;4935453;29;20059;-71
2022/03/17 00:07:43;;;;;;;13.95;2.78;;;3.10;90.90;;;;;;4936430;29;20071;-72
2022/03/17 00:10:16;;;;;;;14.30;3.50;;;3.00;90.90;;;;;;4919461;29;20052;-71
2022/03/17 00:12:47;;;;;;;16.45;2.95;;;3.10;91.00;;;;;;4935350;29;20356;-71
2022/03/17 00:15:16;;;;;;;13.20;3.22;;;3.00;91.00;;;;;;4936095;29;20052;-71
2022/03/17 00:17:44;;;;;;;9.43;2.72;;;3.00;91.00;;;;;;4935173;29;20043;-72
2022/03/17 00:20:13;;;;;;;16.45;3.05;;;3.00;91.10;;;;;;4934106;29;20071;-71
2022/03/17 00:22:41;;;;;;;13.95;3.22;;;2.90;91.00;;;;;;4935264;29;20048;-71
2022/03/17 00:25:09;;;;;;;18.08;3.00;;;3.00;91.20;;;;;;4918171;29;20059;-71
2022/03/17 00:27:37;;;;;;;13.55;2.90;;;2.90;91.20;;;;;;4935363;29;20491;-71
2022/03/17 00:30:06;;;;;;;8.20;2.45;;;2.90;91.20;;;;;;4915186;29;20047;-71
2022/03/17 00:32:34;;;;;;;12.07;2.53;;;2.90;91.20;;;;;;4935199;29;20058;-71
2022/03/17 00:37:48;;;;;;;15.75;2.50;;;2.90;91.20;;;;;;4918008;29;20417;-71
2022/03/17 00:40:16;;;;;;;12.57;2.70;;;2.90;91.30;;;;;;4915900;29;20508;-71
2022/03/17 00:42:44;;;;;;;16.75;3.08;;;2.90;91.20;;;;;;4932934;29;20048;-71
2022/03/17 00:45:12;;;;;;;16.35;2.85;;;2.90;91.30;;;;;;4934265;29;20406;-71
2022/03/17 00:47:40;;;;;;;10.90;2.22;;;2.90;91.20;;;;;;4935385;29;20532;-72
2022/03/17 00:50:11;;;;;;;10.77;2.30;;;2.90;91.10;;;;;;4934811;29;20051;-71
2022/03/17 00:52:39;;;;;;;14.18;2.13;;;2.80;91.00;;;;;;4917798;29;20059;-71
2022/03/17 00:55:07;;;;;;;16.52;2.67;;;2.80;91.10;;;;;;4918013;29;20417;-71
2022/03/17 00:57:36;;;;;;;11.07;2.33;;;2.80;91.10;;;;;;4935161;29;20048;-71
2022/03/17 01:00:05;;;;;;;12.63;2.42;;;2.90;91.20;;;;;;4914951;29;20048;-71
2022/03/17 01:02:34;;;;;;;9.18;2.10;;;2.80;91.10;;;;;;4931930;29;20055;-71
2022/03/17 01:05:02;;;;;;;12.52;2.20;;;2.80;91.10;;;;;;4934704;29;20054;-71
2022/03/17 01:07:32;;;;;;;14.82;2.78;;;2.90;91.00;;;;;;4917354;29;20121;-71
2022/03/17 01:10:02;;;;;;;15.10;2.50;;;2.80;91.00;;;;;;4931245;29;20122;-71
2022/03/17 01:12:30;;;;;;;12.43;2.30;;;2.80;90.90;;;;;;4932982;29;20062;-71
2022/03/17 01:14:58;;;;;;;14.65;2.97;;;2.80;90.90;;;;;;4917703;29;20529;-72
2022/03/17 01:17:27;;;;;;;13.65;3.22;;;2.70;90.80;;;;;;4933733;29;20056;-71
2022/03/17 01:19:55;;;;;;;15.45;3.17;;;2.70;90.90;;;;;;4933451;29;20051;-72
2022/03/17 01:22:23;;;;;;;15.35;3.28;;;2.70;90.90;;;;;;4934237;29;20540;-71
2022/03/17 01:24:54;;;;;;;11.63;3.35;;;2.60;91.00;;;;;;4934225;29;20516;-72
2022/03/17 01:27:23;;;;;;;21.50;4.05;;;2.70;91.00;;;;;;4932596;29;20052;-71
2022/03/17 01:29:53;;;;;;;12.98;4.32;;;2.60;91.00;;;;;;4934204;29;20055;-71
2022/03/17 01:32:22;;;;;;;17.35;4.80;;;2.60;90.90;;;;;;4933989;29;20059;-72
2022/03/17 01:34:51;;;;;;;16.90;5.22;;;2.60;90.90;;;;;;4928057;29;20047;-71
2022/03/17 01:37:19;;;;;;;20.20;5.28;;;2.70;90.90;;;;;;4934265;29;20617;-71
2022/03/17 01:39:46;;;;;;;17.10;5.70;;;2.70;90.90;;;;;;4933564;29;20060;-71
2022/03/17 01:42:14;;;;;;;12.27;4.90;;;2.70;90.70;;;;;;4914822;29;20481;-72
2022/03/17 01:44:42;;;;;;;11.93;4.45;;;2.70;90.50;;;;;;4933913;29;20070;-73
2022/03/17 01:47:28;;;;;;;17.42;4.32;;;2.70;90.40;;;;;;4932961;29;20051;-72
2022/03/17 01:50:05;;;;;;;12.30;3.70;;;2.60;90.30;;;;;;4932955;29;20043;-71
2022/03/17 01:52:32;;;;;;;11.88;3.80;;;2.60;90.30;;;;;;4901154;29;20051;-72
2022/03/17 01:55:01;;;;;;;13.48;3.00;;;2.50;90.30;;;;;;4934102;29;20051;-71
2022/03/17 01:57:29;;;;;;;14.63;2.90;;;2.50;90.20;;;;;;4916629;29;20047;-71
2022/03/17 01:59:57;;;;;;;11.18;2.58;;;2.50;90.20;;;;;;4931524;29;20048;-71
2022/03/17 02:02:25;;;;;;;8.82;2.10;;;2.40;90.20;;;;;;4930424;29;20043;-70
2022/03/17 02:04:53;;;;;;;12.07;1.95;;;2.40;90.20;;;;;;4916935;29;20058;-71
2022/03/17 02:07:21;;;;;;;11.52;2.20;;;2.40;90.20;;;;;;4933964;29;20063;-71
2022/03/17 02:09:49;;;;;;;6.05;1.50;;;2.40;90.10;;;;;;4933434;29;20044;-71
2022/03/17 02:15:08;;;;;;;6.45;1.48;;;2.50;89.60;;;;;;4932440;29;20059;-70
2022/03/17 02:17:39;;;;;;;6.22;1.50;;;2.50;89.00;;;;;;4933725;29;20505;-70
2022/03/17 02:20:11;;;;;;;7.45;1.40;;;2.50;88.70;;;;;;4916262;29;20043;-71
2022/03/17 02:22:48;;;;;;;8.05;1.60;;;2.40;88.60;;;;;;4913643;29;20430;-71
2022/03/17 02:25:35;;;;;;;6.90;1.75;;;2.30;88.60;;;;;;4933313;29;20054;-71
2022/03/17 02:28:05;;;;;;;9.20;1.70;;;2.30;88.70;;;;;;4936237;29;20054;-71
2022/03/17 02:30:37;;;;;;;14.55;2.20;;;2.20;88.70;;;;;;4937278;29;20055;-71
2022/03/17 02:33:08;;;;;;;9.27;1.60;;;2.10;88.80;;;;;;4919530;29;20071;-71
2022/03/17 02:35:37;;;;;;;11.10;1.38;;;2.10;88.80;;;;;;4937062;29;20375;-71
2022/03/17 02:38:06;;;;;;;13.98;1.80;;;2.00;88.90;;;;;;4903405;29;20505;-71
2022/03/17 02:40:36;;;;;;;8.43;1.45;;;1.90;88.90;;;;;;4936835;29;20044;-72
2022/03/17 02:43:05;;;;;;;6.40;1.00;;;1.90;88.90;;;;;;4904365;29;20055;-71
2022/03/17 02:45:34;;;;;;;11.05;1.75;;;1.90;88.80;;;;;;4937443;29;20063;-72
2022/03/17 02:48:04;;;;;;;10.48;1.42;;;2.00;88.70;;;;;;4920436;29;20048;-72
2022/03/17 02:50:34;;;;;;;3.97;0.90;;;1.90;88.60;;;;;;4936979;29;20062;-72
2022/03/17 02:53:08;;;;;;;10.95;1.48;;;1.90;88.60;;;;;;4934439;29;20051;-72
2022/03/17 02:55:38;;;;;;;7.18;1.20;;;1.90;88.50;;;;;;4933288;29;20051;-72
2022/03/17 02:58:07;;;;;;;10.20;1.30;;;1.90;88.40;;;;;;4937105;29;20051;-72
2022/03/17 03:00:36;;;;;;;10.13;1.65;;;1.90;88.30;;;;;;4936776;29;20056;-72
2022/03/17 03:03:07;;;;;;;10.30;1.30;;;1.80;88.20;;;;;;4920148;29;20040;-72
2022/03/17 03:05:35;;;;;;;5.22;1.60;;;1.80;88.20;;;;;;4936803;29;20511;-72
2022/03/17 03:08:03;;;;;;;9.75;1.73;;;1.80;88.20;;;;;;4919228;29;20044;-72
2022/03/17 03:10:31;;;;;;;16.52;2.53;;;1.70;88.30;;;;;;4935919;29;20052;-72
2022/03/17 03:13:00;;;;;;;5.47;1.35;;;1.70;88.40;;;;;;4934018;29;20045;-72
2022/03/17 03:15:29;;;;;;;5.28;1.45;;;1.50;88.40;;;;;;4930186;29;20039;-71
2022/03/17 03:17:58;;;;;;;9.20;1.52;;;1.50;88.50;;;;;;4918346;29;20044;-71
2022/03/17 03:20:25;;;;;;;10.18;1.75;;;1.40;88.50;;;;;;4934090;29;20052;-72
2022/03/17 03:22:53;;;;;;;7.35;1.67;;;1.40;88.50;;;;;;4934884;29;20421;-72
2022/03/17 03:25:20;;;;;;;9.30;1.85;;;1.40;88.60;;;;;;4936520;29;20044;-72
2022/03/17 03:27:48;;;;;;;3.63;1.50;;;1.40;88.50;;;;;;4936180;29;20078;-72
2022/03/17 03:30:16;;;;;;;10.88;1.70;;;1.40;88.50;;;;;;4934860;29;20051;-73
2022/03/17 03:32:44;;;;;;;5.35;1.60;;;1.30;88.50;;;;;;4935983;29;20063;-72
2022/03/17 03:37:59;;;;;;;10.95;2.05;;;1.30;88.50;;;;;;4918895;29;20059;-72
2022/03/17 03:40:27;;;;;;;8.15;1.65;;;1.30;88.40;;;;;;4935044;29;20048;-72
2022/03/17 03:42:54;;;;;;;7.18;2.03;;;1.30;88.50;;;;;;4935098;29;20119;-72
2022/03/17 03:45:22;;;;;;;6.53;1.45;;;1.20;88.50;;;;;;4935013;29;20501;-72
2022/03/17 03:47:50;;;;;;;9.80;1.48;;;1.20;88.70;;;;;;4933370;29;20052;-72
2022/03/17 03:50:17;;;;;;;2.92;1.20;;;1.20;88.80;;;;;;4935670;29;20398;-72
2022/03/17 03:52:45;;;;;;;5.43;1.40;;;1.30;88.70;;;;;;4935792;29;20622;-72
2022/03/17 03:55:13;;;;;;;7.85;1.35;;;1.30;88.70;;;;;;4935615;29;20059;-72
2022/03/17 03:57:41;;;;;;;7.47;1.50;;;1.40;88.60;;;;;;4918841;29;20402;-72
2022/03/17 04:00:24;;;;;;;11.45;1.48;;;1.50;88.50;;;;;;4935621;29;20050;-72
2022/03/17 04:02:51;;;;;;;6.70;1.30;;;1.60;88.30;;;;;;4935772;29;20055;-72
2022/03/17 04:05:21;;;;;;;9.98;1.48;;;1.80;88.00;;;;;;4888137;29;20054;-72
2022/03/17 04:07:49;;;;;;;7.00;1.30;;;1.90;87.70;;;;;;4934083;29;20056;-72
2022/03/17 04:10:21;;;;;;;8.73;1.23;;;2.00;87.30;;;;;;4935372;29;20062;-72
2022/03/17 04:12:49;;;;;;;3.90;0.85;;;2.10;87.00;;;;;;4918898;29;20073;-72
2022/03/17 04:15:17;;;;;;;8.25;1.42;;;2.20;86.60;;;;;;4935995;29;20512;-72
2022/03/17 04:17:45;;;;;;;7.53;1.38;;;2.20;86.40;;;;;;4935687;29;20043;-72
2022/03/17 04:20:12;;;;;;;7.30;1.40;;;2.30;86.40;;;;;;4918493;29;20048;-72
2022/03/17 04:22:41;;;;;;;10.60;1.42;;;2.20;86.30;;;;;;4935670;29;20047;-72
2022/03/17 04:25:09;;;;;;;4.95;1.30;;;2.20;86.50;;;;;;4935367;29;20044;-72
2022/03/17 04:27:36;;;;;;;3.53;1.15;;;2.20;86.50;;;;;;4934022;29;20482;-72
2022/03/17 04:30:05;;;;;;;7.00;1.08;;;2.20;86.60;;;;;;4935456;29;20067;-72
2022/03/17 04:32:32;;;;;;;9.13;1.40;;;2.20;86.50;;;;;;4935413;29;20044;-72
2022/03/17 04:35:00;;;;;;;3.90;0.73;;;2.30;86.40;;;;;;4916149;29;20394;-72
2022/03/17 04:37:27;;;;;;;4.93;0.90;;;2.30;86.40;;;;;;4935095;29;20047;-72
2022/03/17 04:39:55;;;;;;;4.57;0.85;;;2.30;86.50;;;;;;4918344;29;20402;-72
2022/03/17 04:42:23;;;;;;;8.88;1.20;;;2.30;86.40;;;;;;4935182;29;20051;-72
2022/03/17 04:44:50;;;;;;;4.07;0.80;;;2.30;86.30;;;;;;4935057;29;20059;-72
2022/03/17 04:47:18;;;;;;;6.82;1.20;;;2.40;86.40;;;;;;4902495;29;20067;-71
2022/03/17 04:49:45;;;;;;;5.25;0.82;;;2.40;86.50;;;;;;4918243;29;20040;-72
2022/03/17 04:54:59;;;;;;;7.90;1.33;;;2.60;86.70;;;;;;4933012;29;20370;-72
2022/03/17 04:57:27;;;;;;;11.35;1.40;;;2.70;86.50;;;;;;4917622;29;20055;-72
2022/03/17 04:59:54;;;;;;;5.05;1.58;;;2.70;86.40;;;;;;4933599;29;20047;-72
2022/03/17 05:02:22;;;;;;;5.05;1.00;;;2.70;86.40;;;;;;4918288;29;20474;-72
2022/03/17 05:04:51;;;;;;;6.70;1.17;;;2.80;86.30;;;;;;4932987;29;20044;-72
2022/03/17 05:07:19;;;;;;;8.05;1.40;;;2.80;86.30;;;;;;4914626;29;20048;-72
2022/03/17 05:09:47;;;;;;;5.18;0.93;;;2.80;86.30;;;;;;4934765;29;20549;-72
2022/03/17 05:12:15;;;;;;;6.85;1.25;;;2.80;86.20;;;;;;4934500;29;20055;-72
2022/03/17 05:14:43;;;;;;;10.52;1.13;;;2.80;86.20;;;;;;4918378;29;20422;-72
2022/03/17 05:17:11;;;;;;;7.63;1.33;;;2.90;86.20;;;;;;4931930;29;20052;-73
2022/03/17 05:19:38;;;;;;;9.18;1.40;;;2.90;86.20;;;;;;4934457;29;20044;-72
2022/03/17 05:22:06;;;;;;;16.92;1.70;;;2.80;86.30;;;;;;4934671;29;20044;-72
2022/03/17 05:24:33;;;;;;;8.68;1.35;;;2.80;86.30;;;;;;4934526;29;20047;-72
2022/03/17 05:27:01;;;;;;;8.60;1.45;;;2.80;86.40;;;;;;4916189;29;20043;-72
2022/03/17 05:29:29;;;;;;;10.13;1.48;;;2.70;86.50;;;;;;4934403;29;20051;-72
2022/03/17 05:31:56;;;;;;;7.88;1.40;;;2.70;86.70;;;;;;4917080;29;20052;-72
2022/03/17 05:34:32;;;;;;;11.98;1.42;;;2.70;86.80;;;;;;4901260;29;20062;-72
2022/03/17 05:36:59;;;;;;;4.47;1.20;;;2.70;86.80;;;;;;4917044;29;20048;-71
2022/03/17 05:39:27;;;;;;;7.47;1.58;;;2.70;86.90;;;;;;4933999;29;20508;-73
2022/03/17 05:41:54;;;;;;;12.20;1.60;;;2.70;87.00;;;;;;4933935;29;20506;-73
2022/03/17 05:44:22;;;;;;;8.30;1.30;;;2.70;87.20;;;;;;4933498;29;20064;-73
2022/03/17 05:46:50;;;;;;;7.38;1.52;;;2.80;87.10;;;;;;4916455;29;20035;-72
2022/03/17 05:49:19;;;;;;;9.45;1.45;;;2.80;87.00;;;;;;4901851;29;20046;-72
2022/03/17 05:51:50;;;;;;;10.63;1.93;;;2.70;87.00;;;;;;4932882;29;20054;-71
2022/03/17 05:54:18;;;;;;;7.38;1.42;;;2.70;87.20;;;;;;4933205;29;20058;-72
2022/03/17 05:56:45;;;;;;;8.23;1.50;;;2.60;87.20;;;;;;4933458;29;20047;-72
2022/03/17 05:59:13;;;;;;;9.82;1.42;;;2.60;87.20;;;;;;4916837;29;20068;-72
2022/03/17 06:01:40;;;;;;;8.23;1.40;;;2.50;87.30;;;;;;4931096;29;20047;-72
2022/03/17 06:04:28;;;;;;;12.88;1.58;;;2.40;87.40;;;;;;4933260;29;20055;-72
2022/03/17 06:06:56;;;;;;;5.13;1.50;;;2.30;87.50;;;;;;4916833;29;20047;-72
2022/03/17 06:09:23;;;;;;;11.95;2.83;;;2.20;87.50;;;;;;4932152;29;20044;-72
2022/03/17 06:11:53;;;;;;;10.93;2.28;;;2.00;87.50;;;;;;4899775;29;20055;-72
2022/03/17 06:14:21;;;;;;;15.10;2.50;;;1.80;87.70;;;;;;4916676;29;20052;-72
2022/03/17 06:16:49;;;;;;;7.85;2.67;;;1.60;87.90;;;;;;4933137;29;20044;-72
2022/03/17 06:19:17;;;;;;;10.43;2.53;;;1.50;88.00;;;;;;4932135;29;20066;-72
2022/03/17 06:21:44;;;;;;;10.88;3.10;;;1.30;88.10;;;;;;4932221;29;20046;-72
2022/03/17 06:24:12;;;;;;;18.05;2.83;;;1.20;88.30;;;;;;4916599;29;20058;-73
2022/03/17 06:26:40;;;;;;;14.90;3.22;;;1.10;88.40;;;;;;4916402;29;20039;-72
2022/03/17 06:29:08;;;;;;;14.55;3.50;;;1.00;88.50;;;;;;4915218;29;20071;-72
2022/03/17 06:31:39;;;;;;;10.82;3.78;;;0.90;88.70;;;;;;4931224;29;20405;-72
2022/03/17 06:34:07;;;;;;;12.63;3.60;;;0.80;88.70;;;;;;4916562;29;20052;-72
2022/03/17 06:36:34;;;;;;;13.57;3.75;;;0.80;88.80;;;;;;4915110;29;20048;-72
2022/03/17 06:39:02;;;;;;;18.35;4.13;;;0.80;88.80;;;;;;4933044;29;20048;-73
2022/03/17 06:41:30;;;;;;;14.18;3.92;;;0.80;88.90;;;;;;4915979;29;20048;-72
2022/03/17 06:43:57;;;;;;;13.60;4.13;;;0.70;89.00;;;;;;4916539;29;20039;-72
2022/03/17 06:46:25;;;;;;;20.00;4.10;;;0.70;89.10;;;;;;4933472;29;20051;-73
2022/03/17 06:48:53;;;;;;;11.85;4.10;;;0.60;89.20;;;;;;4916425;29;20046;-72
2022/03/17 06:51:20;;;;;;;11.40;3.80;;;0.60;89.10;;;;;;4915875;29;20036;-72
2022/03/17 06:53:48;;;;;;;13.07;4.00;;;0.60;89.20;;;;;;4932558;29;20048;-74
2022/03/17 06:56:15;;;;;;;12.50;3.95;;;0.70;89.20;;;;;;4930239;29;20052;-72
2022/03/17 06:58:43;;;;;;;20.50;5.72;;;0.60;89.20;;;;;;4916315;29;20052;-72
2022/03/17 07:01:11;;;;;;;14.55;5.47;;;0.70;89.40;;;;;;4932607;29;20059;-72
2022/03/17 07:03:39;;;;;;;14.45;4.97;;;0.70;89.40;;;;;;4933256;29;20048;-73
2022/03/17 07:06:07;;;;;;;18.50;5.55;;;0.70;89.40;;;;;;4933245;29;20039;-73
2022/03/17 07:08:35;;;;;;;18.67;5.53;;;0.70;89.40;;;;;;4929767;29;20054;-73
2022/03/17 07:11:02;;;;;;;18.50;6.15;;;0.70;89.50;;;;;;4915352;29;20044;-73
2022/03/17 07:13:30;;;;;;;20.48;6.15;;;0.70;89.50;;;;;;4932335;29;20490;-73
2022/03/17 07:15:57;;;;;;;20.65;6.50;;;0.80;89.50;;;;;;4936903;29;20040;-73
2022/03/17 07:18:25;;;;;;;22.65;7.00;;;0.80;89.60;;;;;;4918292;29;20070;-73
2022/03/17 07:20:57;;;;;;;30.70;7.28;;;0.80;89.70;;;;;;4935540;29;20055;-73
2022/03/17 07:23:25;;;;;;;26.38;6.82;;;1.00;89.80;;;;;;4936452;29;20051;-74
2022/03/17 07:25:53;;;;;;;17.42;5.78;;;1.20;89.90;;;;;;4914697;29;20513;-72
2022/03/17 07:28:21;;;;;;;17.58;5.78;;;1.30;89.90;;;;;;4915118;29;20413;-74
2022/03/17 07:30:49;;;;;;;23.02;5.90;;;1.50;89.80;;;;;;4928164;29;20055;-75
2022/03/17 07:33:16;;;;;;;19.75;5.25;;;1.70;89.70;;;;;;4934554;29;20052;-74
2022/03/17 07:35:44;;;;;;;18.10;5.43;;;1.80;89.70;;;;;;4918623;29;20557;-74
2022/03/17 07:38:12;;;;;;;15.20;4.82;;;1.90;89.70;;;;;;4935653;29;20054;-74
2022/03/17 07:40:40;;;;;;;13.70;4.00;;;1.90;89.70;;;;;;4918108;29;20067;-74
2022/03/17 07:43:08;;;;;;;23.88;3.83;;;2.00;89.70;;;;;;4933820;29;20055;-74
2022/03/17 07:46:03;;;;;;;13.18;3.42;;;2.10;89.80;;;;;;4899699;29;20143;-74
2022/03/17 07:48:49;;;;;;;14.40;3.92;;;2.20;89.90;;;;;;4932808;29;20052;-74
2022/03/17 07:51:25;;;;;;;12.88;4.32;;;2.30;89.90;;;;;;4904727;29;20071;-74
2022/03/17 07:53:52;;;;;;;12.32;5.28;;;2.40;90.00;;;;;;4932736;29;20067;-74
2022/03/17 07:56:20;;;;;;;13.02;3.30;;;2.60;90.00;;;;;;4930762;29;20052;-74
2022/03/17 07:58:48;;;;;;;14.52;3.90;;;2.60;90.00;;;;;;4932716;29;20048;-74
2022/03/17 08:01:18;;;;;;;12.30;2.85;;;2.80;90.00;;;;;;4934760;29;20047;-74
2022/03/17 08:03:46;;;;;;;16.83;3.22;;;2.80;90.00;;;;;;4932696;29;20066;-73
2022/03/17 08:06:14;;;;;;;21.70;3.03;;;3.00;90.00;;;;;;4917603;29;20052;-74
2022/03/17 08:08:43;;;;;;;14.38;3.50;;;3.00;89.90;;;;;;4916313;29;20063;-73
2022/03/17 08:11:12;;;;;;;15.68;3.33;;;3.20;90.00;;;;;;4918384;29;20060;-74
2022/03/17 08:13:41;;;;;;;9.13;2.63;;;3.30;90.10;;;;;;4935810;29;20059;-74
2022/03/17 08:16:10;;;;;;;14.02;2.75;;;3.60;90.20;;;;;;4936713;29;20048;-74
2022/03/17 08:18:38;;;;;;;11.65;2.53;;;3.70;90.10;;;;;;4935297;29;20055;-72
2022/03/17 08:21:22;;;;;;;18.25;2.53;;;3.90;89.90;;;;;;4935789;29;20074;-74
2022/03/17 08:23:53;;;;;;;8.63;2.40;;;4.00;89.80;;;;;;4936699;29;20062;-74
2022/03/17 08:26:21;;;;;;;10.80;2.17;;;4.20;89.60;;;;;;4935011;29;20518;-74
2022/03/17 08:28:49;;;;;;;11.65;3.55;;;4.30;89.40;;;;;;4934034;29;20050;-74
2022/03/17 08:31:17;;;;;;;4.60;2.45;;;4.40;89.20;;;;;;4925717;29;20058;-74
2022/03/17 08:33:46;;;;;;;12.27;2.70;;;4.50;89.10;;;;;;4936018;29;20062;-74
2022/03/17 08:36:14;;;;;;;15.90;3.13;;;4.70;88.90;;;;;;4932406;29;20058;-74
2022/03/17 08:38:41;;;;;;;16.30;2.55;;;4.80;88.60;;;;;;4933614;29;20067;-74
2022/03/17 08:41:09;;;;;;;9.98;2.88;;;4.80;88.40;;;;;;4932998;29;20052;-75
2022/03/17 08:43:37;;;;;;;9.43;3.17;;;4.90;88.30;;;;;;4917915;29;20501;-75
2022/03/17 08:51:37;;;;;;;7.18;2.03;;;5.10;88.30;;;;;;4935925;29;20051;-75
2022/03/17 08:54:05;;;;;;;9.13;2.20;;;5.30;88.10;;;;;;4918863;29;20062;-75
2022/03/17 08:56:36;;;;;;;7.82;2.13;;;5.30;88.00;;;;;;4935734;29;20052;-75
2022/03/17 08:59:05;;;;;;;11.65;2.63;;;5.50;87.70;;;;;;4903196;29;20517;-75
2022/03/17 09:01:33;;;;;;;12.35;1.88;;;5.60;87.40;;;;;;4935892;29;20055;-75
2022/03/17 09:04:02;;;;;;;5.10;1.58;;;5.80;87.20;;;;;;4935747;29;20047;-75
2022/03/17 09:06:29;;;;;;;8.55;2.20;;;6.00;86.70;;;;;;4934332;29;20039;-75
2022/03/17 09:08:57;;;;;;;8.02;1.38;;;6.00;86.40;;;;;;4935694;29;20052;-75
2022/03/17 09:11:26;;;;;;;9.25;1.52;;;6.20;86.00;;;;;;4935715;29;20044;-75
2022/03/17 09:13:54;;;;;;;9.20;1.92;;;6.30;85.60;;;;;;4935774;29;20059;-75
2022/03/17 09:16:22;;;;;;;9.73;1.55;;;6.40;85.50;;;;;;4918183;29;20059;-75
2022/03/17 09:18:50;;;;;;;6.07;1.20;;;6.50;84.70;;;;;;4935082;29;20047;-75
2022/03/17 09:21:18;;;;;;;8.48;1.60;;;6.60;84.10;;;;;;4935561;29;20056;-75
2022/03/17 09:23:45;;;;;;;8.65;1.15;;;6.70;83.80;;;;;;4918325;29;20086;-76
2022/03/17 09:26:14;;;;;;;6.18;1.55;;;6.80;82.90;;;;;;4935124;29;20052;-75
2022/03/17 09:28:43;;;;;;;8.57;1.50;;;6.80;83.30;;;;;;4934215;29;20051;-75
2022/03/17 09:31:11;;;;;;;4.63;0.93;;;6.80;82.60;;;;;;4918545;29;20042;-75
2022/03/17 09:33:39;;;;;;;5.68;0.93;;;7.00;82.50;;;;;;4935098;29;20402;-75
2022/03/17 09:36:09;;;;;;;2.40;0.60;;;7.00;82.50;;;;;;4917943;29;20498;-75
2022/03/17 09:38:37;;;;;;;5.22;0.65;;;7.10;82.40;;;;;;4934633;29;20588;-75
2022/03/17 09:41:23;;;;;;;7.30;1.23;;;7.20;82.40;;;;;;4934647;29;20047;-75
2022/03/17 09:43:52;;;;;;;10.02;1.33;;;7.20;82.10;;;;;;4934267;29;20051;-74
2022/03/17 09:46:21;;;;;;;7.30;1.10;;;7.30;81.70;;;;;;4934972;29;20433;-75
2022/03/17 09:48:53;;;;;;;9.60;1.23;;;7.50;81.00;;;;;;4934923;29;20063;-75
2022/03/17 09:51:24;;;;;;;7.85;1.20;;;7.60;81.30;;;;;;4917646;29;20051;-75
2022/03/17 09:53:53;;;;;;;6.47;0.55;;;7.70;80.70;;;;;;4934473;29;20043;-75
2022/03/17 09:56:24;;;;;;;5.03;0.90;;;7.80;79.70;;;;;;4935111;29;20048;-75
2022/03/17 09:58:57;;;;;;;2.75;0.60;;;7.80;79.70;;;;;;4934784;29;20532;-75
2022/03/17 10:01:28;;;;;;;4.50;1.00;;;7.80;80.30;;;;;;4933396;29;20047;-75
2022/03/17 10:03:58;;;;;;;5.68;0.93;;;7.80;80.00;;;;;;4934642;29;20039;-75
2022/03/17 10:06:28;;;;;;;3.05;0.68;;;7.90;79.80;;;;;;4934949;29;20059;-75
2022/03/17 10:08:57;;;;;;;5.20;1.05;;;8.00;80.00;;;;;;4934780;29;20516;-75
2022/03/17 10:11:31;;;;;;;7.18;0.98;;;8.00;79.50;;;;;;4934126;29;20066;-75
2022/03/17 10:14:00;;;;;;;5.68;0.75;;;8.10;79.80;;;;;;4933304;29;20052;-75
2022/03/17 10:16:28;;;;;;;6.40;0.88;;;8.20;79.30;;;;;;4934912;29;20051;-74
2022/03/17 10:19:00;;;;;;;6.10;0.70;;;8.30;79.00;;;;;;4934402;29;20047;-74
2022/03/17 10:21:28;;;;;;;3.42;0.70;;;8.50;78.60;;;;;;4915601;29;20056;-75
2022/03/17 10:24:02;;;;;;;2.58;0.75;;;8.70;77.70;;;;;;4928653;29;20043;-75
2022/03/17 10:26:36;;;;;;;4.07;0.73;;;8.80;77.00;;;;;;4917950;29;20055;-75
2022/03/17 10:29:06;;;;;;;7.05;0.68;;;9.00;76.90;;;;;;4917536;29;20064;-72
2022/03/17 10:32:09;;;;;;;2.65;0.55;;;9.20;75.90;;;;;;4916431;29;20044;-73
2022/03/17 10:34:46;;;;;;;5.70;0.50;;;9.50;75.40;;;;;;4934674;29;20044;-73
2022/03/17 10:37:22;;;;;;;5.43;0.50;;;9.80;75.30;;;;;;4934528;29;20516;-74
2022/03/17 10:39:55;;;;;;;5.22;0.68;;;10.00;74.20;;;;;;4911899;29;20061;-74
2022/03/17 10:42:26;;;;;;;3.28;0.40;;;10.00;73.30;;;;;;4933973;29;20060;-74
2022/03/17 10:44:56;;;;;;;3.83;0.73;;;10.10;72.80;;;;;;4915881;29;20070;-75
2022/03/17 10:47:33;;;;;;;2.22;0.60;;;10.10;72.50;;;;;;4909643;29;20047;-74
2022/03/17 10:50:10;;;;;;;6.72;0.80;;;10.00;71.80;;;;;;4920580;29;20055;-74
2022/03/17 10:52:57;;;;;;;2.67;0.43;;;10.00;72.60;;;;;;4938074;29;20497;-74
2022/03/17 10:55:30;;;;;;;6.10;0.75;;;9.90;72.80;;;;;;4938433;29;20054;-74
2022/03/17 10:58:14;;;;;;;3.10;0.70;;;9.90;72.60;;;;;;4938249;29;20047;-74
2022/03/17 11:00:48;;;;;;;4.70;0.60;;;9.80;72.10;;;;;;4920551;29;20052;-74
2022/03/17 11:03:18;;;;;;;7.80;0.80;;;9.80;71.70;;;;;;4930557;29;20059;-74
2022/03/17 11:05:49;;;;;;;3.80;0.40;;;9.80;72.80;;;;;;4917893;29;20055;-74
2022/03/17 11:08:18;;;;;;;4.35;0.55;;;9.90;73.20;;;;;;4931446;29;20051;-74
2022/03/17 11:10:46;;;;;;;2.45;0.52;;;10.10;71.70;;;;;;4905340;29;20058;-74
2022/03/17 11:13:14;;;;;;;2.00;0.40;;;10.30;71.00;;;;;;4937598;29;20043;-74
2022/03/17 11:15:45;;;;;;;5.05;1.10;;;10.30;71.50;;;;;;4921012;29;20056;-73
2022/03/17 11:18:17;;;;;;;1.13;0.40;;;10.50;71.20;;;;;;4920860;29;20516;-74
2022/03/17 11:20:45;;;;;;;1.70;0.52;;;10.70;68.70;;;;;;4937793;29;20052;-74
2022/03/17 11:23:20;;;;;;;3.33;0.38;;;10.90;66.90;;;;;;4937753;29;20044;-74
2022/03/17 11:25:52;;;;;;;1.75;0.20;;;11.10;65.50;;;;;;4905643;29;20048;-73
2022/03/17 11:28:41;;;;;;;2.05;0.38;;;11.20;65.10;;;;;;4936664;29;20043;-74
2022/03/17 11:31:09;;;;;;;3.30;0.30;;;11.20;65.00;;;;;;4926602;29;20410;-73
2022/03/17 11:33:44;;;;;;;2.17;0.40;;;11.20;64.90;;;;;;4937761;29;20070;-73
2022/03/17 11:36:24;;;;;;;5.75;0.70;;;11.20;64.70;;;;;;4937230;29;20055;-74
2022/03/17 11:39:02;;;;;;;5.50;0.40;;;11.40;65.90;;;;;;4920328;29;20051;-73
2022/03/17 11:41:33;;;;;;;2.08;0.45;;;11.90;63.90;;;;;;4920323;29;20056;-73
2022/03/17 11:44:03;;;;;;;0.90;0.20;;;12.10;61.50;;;;;;4919965;29;20066;-73
2022/03/17 11:46:40;;;;;;;3.30;0.70;;;12.00;61.90;;;;;;4919656;29;20044;-73
2022/03/17 11:49:26;;;;;;;3.40;0.50;;;12.00;62.20;;;;;;4937090;29;20392;-73
2022/03/17 11:51:57;;;;;;;4.13;0.60;;;12.00;62.10;;;;;;4919439;29;20382;-73
2022/03/17 11:54:25;;;;;;;2.80;0.40;;;11.90;61.50;;;;;;4936366;29;20486;-73
2022/03/17 11:57:04;;;;;;;1.88;0.63;;;11.90;61.90;;;;;;4920026;29;20055;-73
2022/03/17 12:00:06;;;;;;;1.25;0.38;;;11.90;62.30;;;;;;4936118;29;20067;-73
2022/03/17 12:02:41;;;;;;;1.52;0.22;;;11.80;61.80;;;;;;4916788;29;20059;-72
2022/03/17 12:05:12;;;;;;;3.40;0.65;;;11.80;60.60;;;;;;4936408;29;20051;-72
2022/03/17 12:07:47;;;;;;;1.30;0.40;;;11.80;61.70;;;;;;4919830;29;20039;-72
2022/03/17 12:10:52;;;;;;;3.58;0.43;;;11.90;61.90;;;;;;4936304;29;20059;-73
2022/03/17 12:13:21;;;;;;;2.25;0.40;;;12.10;60.60;;;;;;4937178;29;20051;-73
2022/03/17 12:15:57;;;;;;;3.92;0.30;;;12.30;59.90;;;;;;4936024;29;20059;-72
2022/03/17 12:18:26;;;;;;;3.70;0.60;;;12.60;59.00;;;;;;4936987;29;20056;-72
2022/03/17 12:20:54;;;;;;;2.75;0.30;;;12.60;57.60;;;;;;4921645;29;20044;-72
2022/03/17 12:23:44;;;;;;;4.88;0.40;;;12.40;58.60;;;;;;4936077;29;20397;-71
2022/03/17 12:26:12;;;;;;;0.32;0.10;;;12.20;59.00;;;;;;4924654;29;20052;-71
2022/03/17 12:28:44;;;;;;;1.90;0.50;;;12.00;58.70;;;;;;4936091;29;20062;-71
2022/03/17 12:31:12;;;;;;;0.93;0.25;;;11.80;59.30;;;;;;4936522;29;20055;-71
2022/03/17 12:33:43;;;;;;;2.25;0.30;;;11.70;59.70;;;;;;4935826;29;20493;-71
2022/03/17 12:36:14;;;;;;;2.38;0.50;;;11.80;60.30;;;;;;4936310;29;20562;-71
2022/03/17 12:38:41;;;;;;;3.47;0.50;;;11.80;60.60;;;;;;4936502;29;20521;-71
2022/03/17 12:41:13;;;;;;;5.00;0.75;;;11.80;60.80;;;;;;4936254;29;20059;-70
2022/03/17 12:43:41;;;;;;;2.72;0.22;;;11.80;60.50;;;;;;4904197;29;20051;-70
2022/03/17 12:46:09;;;;;;;1.33;0.40;;;11.70;59.50;;;;;;4919578;29;20051;-70
2022/03/17 12:48:37;;;;;;;3.60;0.25;;;11.60;59.30;;;;;;4936125;29;20074;-70
2022/03/17 12:51:11;;;;;;;2.47;0.35;;;11.60;59.70;;;;;;4919291;29;20051;-70
2022/03/17 12:53:42;;;;;;;2.55;0.15;;;11.50;60.50;;;;;;4918890;29;20055;-70
2022/03/17 12:56:09;;;;;;;4.07;0.82;;;11.50;61.20;;;;;;4903463;29;20062;-70
2022/03/17 12:58:40;;;;;;;5.82;0.60;;;11.40;62.60;;;;;;4935598;29;20047;-70
2022/03/17 13:01:13;;;;;;;4.72;0.50;;;11.40;63.30;;;;;;4936014;29;20051;-71
2022/03/17 13:03:43;;;;;;;4.75;0.73;;;11.30;63.80;;;;;;4935947;29;20070;-70
2022/03/17 13:08:57;;;;;;;9.27;0.85;;;11.50;64.70;;;;;;4935908;29;20047;-71
2022/03/17 13:14:20;;;;;;;8.00;0.80;;;11.80;65.20;;;;;;4935853;29;20048;-71
2022/03/17 13:17:02;;;;;;;2.58;0.38;;;11.90;63.90;;;;;;4934951;29;20509;-71
2022/03/17 13:19:30;;;;;;;4.53;0.60;;;12.00;63.30;;;;;;4935494;29;20044;-72
2022/03/17 13:22:07;;;;;;;6.95;1.10;;;12.10;62.80;;;;;;4935087;29;20063;-71
2022/03/17 13:24:34;;;;;;;6.22;0.65;;;12.10;63.00;;;;;;4935617;29;20040;-71
2022/03/17 13:27:02;;;;;;;4.30;0.90;;;12.00;62.90;;;;;;4935467;29;20055;-71